Time;durP1;ratioP1;P1;durP2;ratioP2;P2;SDS_P1;SDS_P2;PMS_P1;PMS_P2;Temp;Humidity;BMP_temperature;BMP_pressure;BME280_temperature;BME280_humidity;BME280_pressure;Samples;Min_cycle;Max_cycle;Signal;HPM_P1;HPM_P2
2022/10/06 00:03:16;;;;;;;6.88;2.80;;;;;;;15.97;100.00;100451.31;12219113;19;20037;-84
2022/10/06 00:07:18;;;;;;;3.83;2.70;;;;;;;15.93;100.00;100461.31;12212999;19;20037;-84
2022/10/06 00:11:20;;;;;;;7.20;2.90;;;;;;;15.89;100.00;100449.06;12217583;19;20011;-84
2022/10/06 00:15:32;;;;;;;6.65;3.28;;;;;;;15.85;100.00;100459.88;12218139;19;20532;-83
2022/10/06 00:19:34;;;;;;;5.28;2.70;;;;;;;15.83;100.00;100448.22;12197670;19;20022;-83
2022/10/06 00:23:36;;;;;;;6.40;3.35;;;;;;;15.78;100.00;100447.34;12221681;19;20031;-82
2022/10/06 00:27:40;;;;;;;8.43;3.15;;;;;;;15.75;100.00;100462.59;12219827;19;20022;-84
2022/10/06 00:31:42;;;;;;;4.88;2.50;;;;;;;15.66;100.00;100453.06;12194429;19;20014;-82
2022/10/06 00:35:44;;;;;;;7.13;3.47;;;;;;;15.62;100.00;100451.94;12222939;19;20003;-82
2022/10/06 00:39:45;;;;;;;8.07;3.33;;;;;;;15.63;100.00;100460.00;12256796;19;20007;-85
2022/10/06 00:43:49;;;;;;;6.35;3.53;;;;;;;15.64;100.00;100469.16;12246867;19;20002;-85
2022/10/06 00:47:53;;;;;;;7.53;3.08;;;;;;;15.62;100.00;100477.78;12226143;19;20787;-84
2022/10/06 00:52:05;;;;;;;6.47;4.20;;;;;;;15.62;100.00;100486.09;12220267;19;20007;-83
2022/10/06 00:56:07;;;;;;;4.63;3.07;;;;;;;15.61;100.00;100489.13;12199014;19;20010;-82
2022/10/06 01:00:10;;;;;;;6.30;3.17;;;;;;;15.57;100.00;100496.34;12220858;19;21067;-83
2022/10/06 01:04:16;;;;;;;6.45;3.42;;;;;;;15.55;100.00;100502.16;12220766;19;20522;-81
2022/10/06 01:08:21;;;;;;;5.10;2.92;;;;;;;15.56;100.00;100506.63;12200241;19;20034;-82
2022/10/06 01:12:24;;;;;;;7.85;2.90;;;;;;;15.56;100.00;100505.78;12219018;19;20017;-83
2022/10/06 01:16:28;;;;;;;7.38;3.78;;;;;;;15.58;100.00;100511.91;12199214;19;20010;-82
2022/10/06 01:20:29;;;;;;;8.68;4.07;;;;;;;15.62;100.00;100513.06;12215965;19;20038;-82
2022/10/06 01:24:31;;;;;;;6.13;3.33;;;;;;;15.75;100.00;100520.94;12218353;19;20010;-82
2022/10/06 01:28:33;;;;;;;7.28;3.53;;;;;;;15.83;100.00;100519.63;12195471;19;20010;-82
2022/10/06 01:32:38;;;;;;;6.65;3.40;;;;;;;15.93;100.00;100523.28;12217216;19;20010;-83
2022/10/06 01:36:40;;;;;;;7.97;3.42;;;;;;;16.03;100.00;100530.03;12214127;19;20010;-82
2022/10/06 01:40:43;;;;;;;8.82;3.28;;;;;;;16.11;100.00;100532.31;12195250;19;20007;-85
2022/10/06 01:44:45;;;;;;;8.68;3.40;;;;;;;16.21;100.00;100529.59;12218425;19;20015;-82
2022/10/06 01:48:47;;;;;;;8.40;3.47;;;;;;;16.32;100.00;100538.81;12219849;19;20031;-85
2022/10/06 01:52:50;;;;;;;6.88;3.40;;;;;;;16.38;100.00;100529.38;12197514;19;20007;-83
2022/10/06 01:56:52;;;;;;;6.25;3.33;;;;;;;16.45;100.00;100540.25;12219272;19;20018;-85
2022/10/06 02:00:54;;;;;;;;;;;;;;;16.49;100.00;100541.41;12218610;19;20037;-85
2022/10/06 02:04:56;;;;;;;9.70;3.63;;;;;;;16.53;100.00;100548.91;12194664;19;20637;-82
2022/10/06 02:08:59;;;;;;;7.57;3.42;;;;;;;16.56;100.00;100558.66;12220152;19;20011;-84
2022/10/06 02:13:01;;;;;;;8.88;3.47;;;;;;;16.62;100.00;100563.16;12227535;19;20510;-84
2022/10/06 02:17:03;;;;;;;7.53;4.20;;;;;;;16.70;100.00;100564.59;12208343;19;20007;-84
2022/10/06 02:21:12;;;;;;;6.93;4.25;;;;;;;16.72;100.00;100573.50;12227965;19;20022;-86
2022/10/06 02:25:16;;;;;;;8.63;3.78;;;;;;;16.71;100.00;100589.34;12228740;19;20575;-85
2022/10/06 02:29:19;;;;;;;15.02;3.95;;;;;;;16.69;100.00;100593.53;12209128;19;20014;-82
2022/10/06 02:33:21;;;;;;;5.75;3.45;;;;;;;16.70;100.00;100606.31;12229070;19;20014;-82
2022/10/06 02:37:23;;;;;;;8.40;3.72;;;;;;;16.65;100.00;100615.47;12210717;19;20042;-82
2022/10/06 02:41:24;;;;;;;9.05;4.03;;;;;;;16.61;100.00;100617.13;12230787;19;20025;-84
2022/10/06 02:45:27;;;;;;;9.88;4.03;;;;;;;16.66;100.00;100633.00;12233719;19;20017;-82
2022/10/06 02:49:30;;;;;;;;;;;;;;;16.63;100.00;100643.59;12251626;19;20006;-83
2022/10/06 02:53:33;;;;;;;6.40;3.20;;;;;;;16.63;100.00;100646.38;12278160;19;19915;-85
2022/10/06 02:57:35;;;;;;;6.13;3.40;;;;;;;16.62;100.00;100646.63;12249948;19;20003;-84
2022/10/06 03:01:37;;;;;;;5.80;3.58;;;;;;;16.63;100.00;100654.72;12211138;19;20010;-84
2022/10/06 03:05:46;;;;;;;6.90;3.55;;;;;;;16.58;100.00;100651.91;12234719;19;20002;-83
2022/10/06 03:09:48;;;;;;;8.05;3.45;;;;;;;16.60;100.00;100669.16;12231766;19;20077;-83
2022/10/06 03:13:50;;;;;;;8.90;3.03;;;;;;;16.56;100.00;100676.34;12208694;19;20010;-85
2022/10/06 03:17:52;;;;;;;8.18;2.88;;;;;;;16.52;100.00;100686.34;12228630;19;20007;-84
2022/10/06 03:21:54;;;;;;;9.95;2.38;;;;;;;16.51;100.00;100697.75;12225195;19;20015;-84
2022/10/06 03:26:03;;;;;;;5.80;2.85;;;;;;;16.44;100.00;100692.41;12209991;19;20028;-83
2022/10/06 03:30:06;;;;;;;5.30;2.50;;;;;;;16.41;100.00;100706.84;12228202;19;20377;-84
2022/10/06 03:34:10;;;;;;;4.25;2.10;;;;;;;16.31;100.00;100707.63;12225193;19;20010;-83
2022/10/06 03:38:12;;;;;;;5.55;1.98;;;;;;;16.29;100.00;100714.56;12205863;19;20031;-86
2022/10/06 03:42:14;;;;;;;4.13;1.63;;;;;;;16.24;100.00;100731.19;12221079;19;20595;-83
2022/10/06 03:46:18;;;;;;;3.28;1.30;;;;;;;16.18;100.00;100742.28;12229623;19;20031;-83
2022/10/06 03:50:20;;;;;;;4.30;1.20;;;;;;;16.11;100.00;100758.34;12203387;19;20011;-85
2022/10/06 03:54:22;;;;;;;3.00;1.30;;;;;;;16.10;100.00;100766.97;12221886;19;20006;-83
2022/10/06 03:58:27;;;;;;;1.67;0.70;;;;;;;16.09;100.00;100771.69;12202993;19;20485;-85
2022/10/06 04:02:29;;;;;;;4.25;0.82;;;;;;;16.07;100.00;100767.47;12220779;19;20062;-84
2022/10/06 04:06:35;;;;;;;6.30;1.00;;;;;;;16.05;100.00;100780.81;12221545;19;20015;-83
2022/10/06 04:10:38;;;;;;;3.53;1.00;;;;;;;15.97;100.00;100779.31;12197262;19;20031;-83
2022/10/06 04:14:39;;;;;;;2.90;1.00;;;;;;;15.97;100.00;100778.47;12222019;19;20003;-83
2022/10/06 04:18:43;;;;;;;2.92;0.90;;;;;;;15.98;100.00;100799.66;12219054;19;20354;-83
2022/10/06 04:22:46;;;;;;;4.15;1.13;;;;;;;15.94;100.00;100797.38;12198982;19;20014;-85
2022/10/06 04:26:48;;;;;;;6.20;0.95;;;;;;;15.90;100.00;100806.50;12221412;19;20006;-84
2022/10/06 04:30:59;;;;;;;2.42;0.82;;;;;;;15.83;100.00;100812.25;12218700;19;20010;-83
2022/10/06 04:35:01;;;;;;;3.63;0.80;;;;;;;15.79;100.00;100826.94;12198898;19;20011;-83
2022/10/06 04:39:04;;;;;;;2.93;0.70;;;;;;;15.76;100.00;100831.06;12222186;19;20010;-84
2022/10/06 04:43:07;;;;;;;6.00;1.20;;;;;;;15.75;100.00;100840.50;12222104;19;20313;-83
2022/10/06 04:47:09;;;;;;;2.58;0.82;;;;;;;15.73;100.00;100845.47;12199644;19;20086;-82
2022/10/06 04:51:14;;;;;;;3.47;0.77;;;;;;;15.68;100.00;100849.03;12219391;19;20011;-83
2022/10/06 04:55:16;;;;;;;4.22;1.15;;;;;;;15.67;100.00;100840.91;12219776;19;20010;-84
2022/10/06 04:59:18;;;;;;;5.68;0.85;;;;;;;15.68;100.00;100849.03;12197997;19;20444;-82
2022/10/06 05:03:21;;;;;;;3.08;1.10;;;;;;;15.68;100.00;100845.44;12217653;19;20017;-82
2022/10/06 05:07:24;;;;;;;4.85;1.00;;;;;;;15.64;100.00;100860.88;12194606;19;20455;-79
2022/10/06 05:11:28;;;;;;;2.30;0.80;;;;;;;15.60;100.00;100857.78;12212289;19;20646;-79
2022/10/06 05:15:31;;;;;;;2.70;0.80;;;;;;;15.58;100.00;100868.31;12212666;19;20612;-79
2022/10/06 05:19:32;;;;;;;3.57;1.00;;;;;;;15.59;100.00;100883.06;12196061;19;20014;-83
2022/10/06 05:23:39;;;;;;;5.35;1.05;;;;;;;15.57;100.00;100876.91;12214838;19;20010;-86
2022/10/06 05:27:40;;;;;;;11.05;1.50;;;;;;;15.52;100.00;100887.94;12207665;19;20353;-83
2022/10/06 05:31:43;;;;;;;8.07;1.67;;;;;;;15.45;100.00;100911.19;12171190;19;20359;-84
2022/10/06 05:35:55;;;;;;;4.60;0.93;;;;;;;15.35;100.00;100913.84;12204279;19;20003;-83
2022/10/06 05:39:57;;;;;;;2.55;0.77;;;;;;;15.26;100.00;100920.91;12195670;19;20033;-83
2022/10/06 05:43:59;;;;;;;5.22;1.58;;;;;;;15.26;100.00;100932.03;12197611;19;20023;-83
2022/10/06 05:48:07;;;;;;;3.75;1.00;;;;;;;15.25;100.00;100931.16;12254616;19;20032;-85
2022/10/06 05:52:09;;;;;;;4.40;0.90;;;;;;;15.23;100.00;100946.41;12280215;19;20071;-85
2022/10/06 05:56:16;;;;;;;4.60;1.00;;;;;;;15.17;100.00;100958.50;12223969;19;20781;-84
2022/10/06 06:00:18;;;;;;;4.82;0.80;;;;;;;15.03;100.00;100960.78;12227226;19;20321;-84
2022/10/06 06:04:20;;;;;;;3.70;0.93;;;;;;;14.85;100.00;100966.59;12225386;19;20040;-84
2022/10/06 06:08:25;;;;;;;2.63;0.73;;;;;;;14.72;100.00;100970.50;12204243;19;20417;-85
2022/10/06 06:12:28;;;;;;;8.02;1.00;;;;;;;14.76;100.00;100974.47;12221087;19;20010;-83
2022/10/06 06:16:50;;;;;;;3.08;1.00;;;;;;;14.91;100.00;100987.78;12201242;19;20026;-83
2022/10/06 06:21:03;;;;;;;2.05;0.80;;;;;;;15.04;100.00;100998.56;12224637;19;20023;-84
2022/10/06 06:25:05;;;;;;;7.97;1.13;;;;;;;15.10;100.00;101005.03;12221165;19;20041;-84
2022/10/06 06:29:08;;;;;;;7.15;1.10;;;;;;;15.21;100.00;101018.00;12203009;19;20010;-84
2022/10/06 06:33:15;;;;;;;4.63;0.93;;;;;;;15.25;100.00;101030.28;12222997;19;20017;-83
2022/10/06 06:37:17;;;;;;;10.02;1.50;;;;;;;15.27;100.00;101031.72;12226331;19;20010;-84
2022/10/06 06:41:22;;;;;;;6.88;0.75;;;;;;;15.33;100.00;101045.72;12199637;19;20010;-83
2022/10/06 06:45:29;;;;;;;4.38;0.90;;;;;;;15.36;100.00;101045.19;12216372;19;20677;-83
2022/10/06 06:49:49;;;;;;;6.57;1.05;;;;;;;15.34;100.00;101056.53;12195836;19;20027;-84
2022/10/06 06:53:52;;;;;;;7.25;1.02;;;;;;;15.43;100.00;101073.63;12218283;19;20007;-83
2022/10/06 06:57:54;;;;;;;5.47;0.80;;;;;;;15.47;100.00;101078.47;12220538;19;20038;-84
2022/10/06 07:01:56;;;;;;;4.13;1.80;;;;;;;15.43;100.00;101085.59;12195790;19;20070;-83
2022/10/06 07:06:10;;;;;;;40.20;19.90;;;;;;;15.44;100.00;101092.00;12221993;19;20014;-83
2022/10/06 07:10:13;;;;;;;19.63;9.00;;;;;;;15.54;100.00;101088.56;12213877;19;20006;-84
2022/10/06 07:14:14;;;;;;;10.48;2.55;;;;;;;15.74;100.00;101094.50;12195987;19;20102;-83
2022/10/06 07:27:01;;;;;;;3.95;0.82;;;;;;;15.85;100.00;101115.78;12216964;19;20076;-83
2022/10/06 07:31:03;;;;;;;6.72;1.27;;;;;;;15.71;100.00;101120.00;12217352;19;20014;-83
2022/10/06 07:35:06;;;;;;;2.90;1.05;;;;;;;15.64;100.00;101120.13;12195040;19;20019;-84
2022/10/06 07:39:09;;;;;;;5.47;1.10;;;;;;;15.67;98.57;101125.19;12218329;19;20003;-83
2022/10/06 07:43:12;;;;;;;4.35;0.73;;;;;;;15.62;99.42;101133.44;12219303;19;20361;-83
2022/10/06 07:47:17;;;;;;;3.10;1.10;;;;;;;15.53;100.00;101136.84;12190565;19;20007;-83
2022/10/06 07:51:29;;;;;;;4.60;1.42;;;;;;;15.71;100.00;101142.25;12214409;19;20007;-83
2022/10/06 07:55:32;;;;;;;9.38;1.65;;;;;;;15.89;100.00;101150.31;12194992;19;20006;-83
2022/10/06 07:59:49;;;;;;;4.88;1.00;;;;;;;16.18;98.23;101151.06;12216344;19;20610;-84
2022/10/06 08:03:51;;;;;;;4.10;1.20;;;;;;;16.32;95.24;101159.88;12213623;19;20019;-83
2022/10/06 08:07:53;;;;;;;6.03;1.35;;;;;;;16.44;92.90;101165.34;12193842;19;20392;-84
2022/10/06 08:11:55;;;;;;;4.28;1.27;;;;;;;16.34;92.51;101174.41;12213149;19;20525;-83
2022/10/06 08:16:04;;;;;;;9.93;1.80;;;;;;;16.20;93.07;101170.28;12216942;19;20539;-83
2022/10/06 08:20:09;;;;;;;8.13;1.30;;;;;;;16.34;93.36;101179.13;12192568;19;20011;-83
2022/10/06 08:24:11;;;;;;;5.93;1.33;;;;;;;16.37;91.04;101179.44;12210696;19;20010;-84
2022/10/06 08:28:13;;;;;;;4.10;1.10;;;;;;;16.44;90.98;101186.75;12216214;19;20003;-84
2022/10/06 08:32:17;;;;;;;4.90;1.20;;;;;;;16.77;89.04;101200.63;12191670;19;20651;-83
2022/10/06 08:36:18;;;;;;;7.20;1.60;;;;;;;16.97;84.74;101186.16;12216404;19;20010;-84
2022/10/06 08:40:20;;;;;;;9.98;1.73;;;;;;;17.36;81.66;101196.34;12214146;19;20003;-85
2022/10/06 08:44:39;;;;;;;12.18;1.50;;;;;;;17.84;77.77;101206.63;12193925;19;20734;-84
2022/10/06 08:48:41;;;;;;;6.85;1.17;;;;;;;17.73;74.16;101202.06;12212831;19;20467;-84
2022/10/06 08:53:21;;;;;;;7.22;1.50;;;;;;;17.17;74.69;101207.84;12191916;19;20023;-85
2022/10/06 08:57:37;;;;;;;10.20;1.40;;;;;;;16.70;77.23;101218.59;12214270;19;20082;-83
2022/10/06 09:01:48;;;;;;;9.32;1.35;;;;;;;16.41;77.91;101221.50;12189628;19;20042;-84
2022/10/06 09:05:52;;;;;;;8.23;1.23;;;;;;;16.21;78.65;101216.47;12214131;19;20506;-84
2022/10/06 09:10:30;;;;;;;5.03;1.33;;;;;;;16.44;77.39;101222.94;12213078;19;20014;-83
2022/10/06 09:14:47;;;;;;;6.90;1.23;;;;;;;16.71;75.87;101229.47;12188541;19;20467;-84
2022/10/06 09:18:54;;;;;;;8.95;1.55;;;;;;;17.02;73.61;101236.34;12212106;19;20013;-82
2022/10/06 09:23:15;;;;;;;4.13;1.23;;;;;;;17.31;69.44;101237.00;12189753;19;20014;-82
2022/10/06 09:27:22;;;;;;;10.15;2.67;;;;;;;17.35;68.00;101233.69;12214272;19;20014;-83
2022/10/06 09:31:39;;;;;;;9.10;1.70;;;;;;;17.45;66.74;101239.38;12188490;19;20007;-84
2022/10/06 09:36:05;;;;;;;9.05;2.22;;;;;;;17.71;66.58;101243.28;12213718;19;20030;-85
2022/10/06 09:40:33;;;;;;;9.90;1.98;;;;;;;17.80;63.67;101254.84;12212452;19;20449;-83
2022/10/06 09:44:56;;;;;;;7.47;1.20;;;;;;;17.98;63.84;101244.16;12190759;19;20018;-83
2022/10/06 09:49:16;;;;;;;6.07;1.58;;;;;;;18.01;61.02;101245.56;12209250;19;20448;-84
2022/10/06 09:53:18;;;;;;;7.40;1.63;;;;;;;18.16;61.28;101242.91;12189335;19;20011;-85
2022/10/06 09:57:25;;;;;;;8.55;2.15;;;;;;;18.35;58.86;101242.50;12211693;19;20025;-85
2022/10/06 10:01:29;;;;;;;6.57;1.52;;;;;;;18.48;57.78;101241.22;12188196;19;20026;-88
2022/10/06 10:05:33;;;;;;;6.78;1.60;;;;;;;18.56;55.26;101244.34;12213660;19;20401;-86
2022/10/06 10:09:35;;;;;;;6.13;1.45;;;;;;;18.53;53.58;101238.44;12210022;19;20429;-85
2022/10/06 10:13:43;;;;;;;7.63;1.65;;;;;;;18.67;54.11;101245.25;12191330;19;20011;-85
2022/10/06 10:18:02;;;;;;;11.63;1.60;;;;;;;18.69;54.23;101245.84;12226887;19;20018;-87
2022/10/06 10:22:21;;;;;;;8.40;1.83;;;;;;;18.63;53.79;101239.38;12269030;19;20042;-87
2022/10/06 10:26:25;;;;;;;6.55;1.48;;;;;;;18.65;53.82;101236.31;12245944;19;20011;-87
2022/10/06 10:30:27;;;;;;;5.95;1.15;;;;;;;18.65;52.78;101237.16;12225225;19;20743;-85
2022/10/06 10:35:04;;;;;;;6.53;1.55;;;;;;;18.63;51.55;101244.13;12204174;19;20006;-85
2022/10/06 10:39:13;;;;;;;3.90;1.42;;;;;;;18.74;52.17;101247.84;12224130;19;20021;-86
2022/10/06 10:43:39;;;;;;;7.18;1.60;;;;;;;18.95;48.20;101252.44;12227827;19;20463;-85
2022/10/06 10:47:43;;;;;;;6.07;0.98;;;;;;;18.92;46.57;101258.59;12202826;19;20034;-86
2022/10/06 10:52:10;;;;;;;4.82;1.10;;;;;;;18.86;46.96;101245.69;12224204;19;20038;-86
2022/10/06 10:56:15;;;;;;;9.90;1.52;;;;;;;18.73;48.36;101249.78;12209424;19;20030;-85
2022/10/06 11:00:40;;;;;;;9.48;1.52;;;;;;;18.79;49.26;101261.84;12275755;19;20018;-88
2022/10/06 11:04:48;;;;;;;10.10;2.05;;;;;;;18.77;49.94;101256.53;12239401;19;20027;-85
2022/10/06 11:09:04;;;;;;;10.27;2.13;;;;;;;18.79;50.85;101259.88;12227018;19;20015;-84
2022/10/06 11:13:27;;;;;;;9.73;1.73;;;;;;;19.01;52.50;101251.38;12224819;19;20033;-85
2022/10/06 11:17:42;;;;;;;9.45;1.33;;;;;;;19.23;51.71;101264.31;12202670;19;20029;-84
2022/10/06 11:22:20;;;;;;;7.32;1.23;;;;;;;19.27;51.03;101254.25;12222828;19;20017;-85
2022/10/06 11:26:47;;;;;;;12.35;2.15;;;;;;;19.56;50.90;101252.69;12202727;19;20368;-85
2022/10/06 11:31:10;;;;;;;9.32;1.45;;;;;;;19.82;49.01;101247.22;12225564;19;20010;-85
2022/10/06 11:35:37;;;;;;;7.80;1.40;;;;;;;20.02;48.42;101254.81;12193787;19;20017;-85
2022/10/06 11:39:41;;;;;;;7.50;1.58;;;;;;;20.51;47.70;101243.03;12214558;19;20039;-85
2022/10/06 11:43:52;;;;;;;11.45;1.75;;;;;;;20.92;46.42;101229.00;12199052;19;20050;-86
2022/10/06 11:48:06;;;;;;;9.50;1.88;;;;;;;21.36;46.75;101222.69;12219104;19;20697;-84
2022/10/06 11:52:07;;;;;;;9.85;1.90;;;;;;;21.74;46.41;101228.63;12210259;19;20014;-85
2022/10/06 11:56:15;;;;;;;8.27;1.93;;;;;;;22.00;45.03;101224.50;12195185;19;20038;-85
2022/10/06 12:00:17;;;;;;;4.80;1.80;;;;;;;21.84;45.00;101218.19;12210171;19;20459;-84
2022/10/06 12:04:19;;;;;;;8.15;2.03;;;;;;;21.97;45.00;101224.25;12212832;19;20015;-85
2022/10/06 12:08:36;;;;;;;7.70;1.40;;;;;;;22.12;42.57;101218.53;12190749;19;20046;-86
2022/10/06 12:12:40;;;;;;;8.68;1.30;;;;;;;22.20;41.58;101222.72;12208402;19;20415;-80
2022/10/06 12:16:45;;;;;;;4.97;1.35;;;;;;;22.45;41.76;101208.44;12189461;19;20016;-84
2022/10/06 12:21:17;;;;;;;6.70;1.50;;;;;;;22.74;41.69;101199.16;12211526;19;20472;-85
2022/10/06 12:25:38;;;;;;;7.00;1.43;;;;;;;22.81;39.62;101202.44;12211440;19;20073;-86
2022/10/06 12:29:51;;;;;;;5.55;1.55;;;;;;;23.03;39.76;101201.13;12192035;19;20014;-83
2022/10/06 12:33:52;;;;;;;;;;;;;;;22.75;40.64;101198.00;12212981;19;20377;-83
2022/10/06 12:37:57;;;;;;;6.75;1.65;;;;;;;22.98;40.01;101196.38;12192666;19;20000;-85
2022/10/06 12:42:00;;;;;;;10.38;1.60;;;;;;;23.11;40.13;101198.47;12212210;19;20033;-83
2022/10/06 12:46:06;;;;;;;5.70;1.48;;;;;;;23.41;39.73;101185.97;12211049;19;20037;-85
2022/10/06 12:50:19;;;;;;;6.78;1.27;;;;;;;23.79;39.72;101187.97;12186050;19;20729;-84
2022/10/06 12:54:32;;;;;;;4.10;1.30;;;;;;;24.20;38.33;101181.69;12212864;19;20840;-85
2022/10/06 12:58:34;;;;;;;6.38;1.60;;;;;;;24.04;36.95;101179.13;12189367;19;20106;-83
2022/10/06 13:02:42;;;;;;;5.63;1.48;;;;;;;23.38;37.34;101180.97;12215257;19;20027;-85
2022/10/06 13:06:48;;;;;;;5.65;1.50;;;;;;;22.59;38.83;101174.88;12214016;19;20070;-85
2022/10/06 13:10:50;;;;;;;8.75;1.50;;;;;;;21.92;40.50;101179.38;12185917;19;20014;-84
2022/10/06 13:15:15;;;;;;;7.30;1.90;;;;;;;21.39;40.31;101169.66;12206764;19;20007;-83
2022/10/06 13:19:26;;;;;;;5.32;1.30;;;;;;;21.39;40.72;101177.25;12211548;19;20014;-84
2022/10/06 13:23:30;;;;;;;4.53;1.20;;;;;;;21.54;40.41;101170.72;12187690;19;20022;-84
2022/10/06 13:27:33;;;;;;;4.05;1.50;;;;;;;21.82;40.00;101169.94;12212217;19;20341;-85
2022/10/06 13:31:36;;;;;;;5.83;1.43;;;;;;;21.32;40.89;101171.91;12190038;19;20026;-84
2022/10/06 13:35:38;;;;;;;9.68;1.33;;;;;;;20.71;42.28;101166.59;12211329;19;20003;-84
2022/10/06 13:39:40;;;;;;;6.40;1.58;;;;;;;20.30;43.15;101163.84;12211117;19;20007;-84
2022/10/06 13:44:17;;;;;;;5.87;1.37;;;;;;;19.84;44.76;101163.00;12188973;19;20007;-83
2022/10/06 13:48:20;;;;;;;4.82;1.23;;;;;;;19.53;44.54;101162.94;12211397;19;20018;-85
2022/10/06 13:52:37;;;;;;;7.13;1.23;;;;;;;19.19;44.74;101160.63;12205084;19;20007;-83
2022/10/06 13:56:39;;;;;;;8.55;1.67;;;;;;;19.00;45.71;101165.88;12188148;19;20520;-84
2022/10/06 14:00:45;;;;;;;6.95;1.58;;;;;;;18.96;46.04;101159.16;12210480;19;20015;-84
2022/10/06 14:05:26;;;;;;;5.32;1.45;;;;;;;18.95;46.05;101151.91;12194844;19;21206;-83
2022/10/06 14:09:32;;;;;;;6.90;1.05;;;;;;;18.92;45.60;101158.03;12219927;19;20006;-84
2022/10/06 14:13:51;;;;;;;3.90;1.25;;;;;;;18.82;46.59;101153.22;12201750;19;20059;-84
2022/10/06 14:17:59;;;;;;;10.32;1.40;;;;;;;18.73;47.52;101157.66;12218667;19;20339;-83
2022/10/06 14:22:02;;;;;;;9.20;1.55;;;;;;;18.64;47.92;101154.50;12219261;19;20010;-85
2022/10/06 14:26:04;;;;;;;8.23;1.60;;;;;;;18.71;47.29;101156.19;12198683;19;20095;-85
2022/10/06 14:30:07;;;;;;;7.88;1.27;;;;;;;18.89;48.42;101150.19;12216035;19;20510;-85
2022/10/06 14:34:15;;;;;;;4.65;1.30;;;;;;;18.98;47.42;101139.34;12223473;19;20509;-83
2022/10/06 14:38:17;;;;;;;8.77;1.65;;;;;;;18.92;48.16;101141.28;12198836;19;20006;-85
2022/10/06 14:42:23;;;;;;;10.05;1.35;;;;;;;19.09;48.01;101141.03;12217605;19;20074;-86
2022/10/06 14:46:25;;;;;;;4.78;1.27;;;;;;;19.39;47.76;101136.63;12210608;19;20077;-83
2022/10/06 14:50:29;;;;;;;5.43;1.30;;;;;;;19.68;47.75;101139.78;12218509;19;20011;-86
2022/10/06 14:54:33;;;;;;;11.32;2.20;;;;;;;19.85;46.46;101143.16;12208429;19;20042;-84
2022/10/06 14:58:42;;;;;;;6.43;1.65;;;;;;;19.83;46.36;101128.59;12196082;19;20038;-84
2022/10/06 15:02:44;;;;;;;6.50;1.17;;;;;;;19.78;46.61;101137.00;12213257;19;20007;-85
2022/10/06 15:11:06;;;;;;;9.85;1.23;;;;;;;19.61;46.35;101131.66;12191870;19;20074;-85
2022/10/06 15:15:08;;;;;;;4.35;1.02;;;;;;;19.41;46.88;101128.81;12214232;19;20010;-84
2022/10/06 15:19:11;;;;;;;6.65;1.17;;;;;;;19.23;47.35;101121.81;12218065;19;20349;-84
2022/10/06 15:23:13;;;;;;;3.55;1.00;;;;;;;19.09;47.12;101122.31;12190864;19;20006;-83
2022/10/06 15:31:38;;;;;;;8.57;1.13;;;;;;;18.79;47.76;101111.03;12184408;19;20365;-85
2022/10/06 15:35:42;;;;;;;5.00;1.15;;;;;;;18.58;48.42;101110.09;12213146;19;20081;-85
2022/10/06 15:39:45;;;;;;;5.13;1.17;;;;;;;18.40;48.73;101123.38;12215384;19;20117;-86
2022/10/06 15:43:54;;;;;;;5.00;1.05;;;;;;;18.28;49.34;101113.53;12192005;19;20010;-85
2022/10/06 15:47:55;;;;;;;2.35;0.82;;;;;;;18.14;49.91;101118.75;12216873;19;20015;-85
2022/10/06 15:52:01;;;;;;;6.47;1.08;;;;;;;18.05;49.98;101120.34;12211457;19;20011;-85
2022/10/06 15:56:04;;;;;;;4.95;1.20;;;;;;;17.87;51.20;101108.50;12190939;19;20010;-84
2022/10/06 16:00:07;;;;;;;9.45;1.70;;;;;;;17.72;51.61;101111.16;12212689;19;20011;-84
2022/10/06 16:08:35;;;;;;;;;;;;;;;17.46;52.43;101102.56;12220795;19;20039;-79
2022/10/06 16:12:37;;;;;;;4.80;1.00;;;;;;;17.35;52.62;101109.16;12265728;19;19907;-80
2022/10/06 16:16:39;;;;;;;11.02;1.40;;;;;;;17.22;53.23;101115.13;12207695;19;20014;-85
2022/10/06 16:20:44;;;;;;;5.30;1.10;;;;;;;17.05;55.19;101116.06;12215679;19;20115;-84
2022/10/06 16:24:46;;;;;;;7.82;1.10;;;;;;;16.83;56.78;101107.72;12213286;19;20007;-85
2022/10/06 16:28:48;;;;;;;6.07;1.65;;;;;;;16.63;58.58;101115.81;12194410;19;20017;-85
2022/10/06 16:32:50;;;;;;;5.55;1.00;;;;;;;16.41;60.17;101119.41;12216842;19;20030;-84
2022/10/06 16:36:52;;;;;;;8.85;1.48;;;;;;;16.19;61.76;101121.31;12217411;19;20028;-85
2022/10/06 16:41:00;;;;;;;5.22;1.13;;;;;;;15.94;63.17;101105.94;12195753;19;20360;-84
2022/10/06 16:45:02;;;;;;;6.13;1.10;;;;;;;15.75;64.09;101117.56;12215506;19;20034;-85
2022/10/06 16:49:04;;;;;;;3.78;1.00;;;;;;;15.53;65.37;101117.41;12216765;19;20018;-84
2022/10/06 16:53:06;;;;;;;6.60;1.30;;;;;;;15.32;66.26;101113.44;12187671;19;20037;-84
2022/10/06 16:57:07;;;;;;;11.07;1.77;;;;;;;15.12;67.64;101117.53;12210590;19;20050;-81
2022/10/06 17:01:11;;;;;;;8.20;1.80;;;;;;;14.95;69.12;101116.63;12212316;19;20014;-85
2022/10/06 17:05:13;;;;;;;7.10;1.23;;;;;;;14.74;70.21;101120.91;12190101;19;20014;-84
2022/10/06 17:09:17;;;;;;;6.70;1.55;;;;;;;14.53;71.45;101114.94;12214453;19;20448;-85
2022/10/06 17:13:18;;;;;;;4.55;1.17;;;;;;;14.38;72.21;101122.06;12211745;19;20034;-82
2022/10/06 17:17:20;;;;;;;8.18;1.52;;;;;;;14.21;73.20;101128.31;12189585;19;20010;-85
2022/10/06 17:21:23;;;;;;;6.95;1.40;;;;;;;14.07;73.93;101124.97;12209115;19;20014;-84
2022/10/06 17:25:44;;;;;;;12.40;1.98;;;;;;;13.93;74.27;101131.81;12189127;19;20052;-84
2022/10/06 17:29:48;;;;;;;8.32;1.38;;;;;;;13.81;75.33;101130.97;12211486;19;20014;-86
2022/10/06 17:33:50;;;;;;;7.55;1.33;;;;;;;13.70;76.05;101138.19;12210428;19;20010;-83
2022/10/06 17:37:53;;;;;;;16.87;1.70;;;;;;;13.56;76.16;101128.38;12197716;19;20450;-82
2022/10/06 17:41:54;;;;;;;4.93;1.50;;;;;;;13.45;76.50;101121.75;12227412;19;20570;-80
2022/10/06 17:45:56;;;;;;;13.30;1.75;;;;;;;13.33;77.20;101146.66;12279312;19;20006;-80
2022/10/06 17:49:59;;;;;;;4.13;1.55;;;;;;;13.24;77.58;101145.25;12254843;19;20019;-80
2022/10/06 17:54:03;;;;;;;13.10;1.65;;;;;;;13.18;78.25;101144.28;12247803;19;20349;-84
2022/10/06 17:58:07;;;;;;;10.85;1.63;;;;;;;13.11;79.03;101146.25;12218130;19;20363;-84
2022/10/06 18:02:11;;;;;;;9.85;1.40;;;;;;;13.03;79.69;101138.31;12196034;19;20073;-81
2022/10/06 18:06:15;;;;;;;8.30;1.20;;;;;;;12.95;80.22;101135.88;12225816;19;20015;-83
2022/10/06 18:14:39;;;;;;;7.85;1.73;;;;;;;12.77;81.01;101145.03;12195685;19;20014;-82
2022/10/06 18:18:51;;;;;;;7.57;1.40;;;;;;;12.72;81.40;101140.19;12221949;19;20451;-85
2022/10/06 18:22:54;;;;;;;5.72;1.20;;;;;;;12.66;81.62;101137.50;12191658;19;20010;-87
2022/10/06 18:27:00;;;;;;;7.70;1.35;;;;;;;12.63;82.18;101144.34;12220938;19;20038;-85
2022/10/06 18:31:01;;;;;;;6.55;1.45;;;;;;;12.58;82.89;101135.03;12221607;19;20006;-86
2022/10/06 18:35:04;;;;;;;10.65;1.20;;;;;;;12.52;83.26;101126.63;12210372;19;20668;-86
2022/10/06 18:39:29;;;;;;;5.75;1.33;;;;;;;12.46;83.52;101130.31;12228644;19;20014;-85
2022/10/06 18:43:31;;;;;;;10.85;1.83;;;;;;;12.45;83.65;101136.06;12199625;19;20054;-85
2022/10/06 18:51:54;;;;;;;7.10;1.23;;;;;;;12.38;84.75;101129.75;12224693;19;20037;-87
2022/10/06 18:55:59;;;;;;;11.38;1.35;;;;;;;12.34;84.98;101122.97;12200268;19;20014;-86
2022/10/06 19:00:01;;;;;;;8.52;1.38;;;;;;;12.31;85.22;101124.28;12223047;19;20246;-85
2022/10/06 19:04:04;;;;;;;10.93;2.08;;;;;;;12.25;85.48;101120.50;12221191;19;20380;-85
2022/10/06 19:08:07;;;;;;;6.78;1.73;;;;;;;12.23;85.62;101128.22;12204479;19;20023;-83
2022/10/06 19:12:09;;;;;;;5.20;1.27;;;;;;;12.20;85.84;101131.44;12225853;19;20017;-84
2022/10/06 19:16:13;;;;;;;10.27;1.08;;;;;;;12.19;86.19;101131.66;12222031;19;20577;-86
2022/10/06 19:20:15;;;;;;;6.78;1.50;;;;;;;12.15;86.28;101128.50;12195610;19;20453;-87